EGYP

Mount Pleasant Airport

Mount Pleasant, Falkland Islands
METAR EGYP 180250Z 29021KT 9999 -RA OVC035 08/05 Q0998 BLU
Observed Flight Rules
Dec-18 @ 02:50 UTC (29 minutes ago) Visual Flight Rules
Wind Visibility Clouds Conditions
290° at 21 knots 10,000+ meters
  • Overcast at 3,500' AGL
  • Light Rain
Temperatures Readings
Current 8°C / 46°F
Dewpoint 5°C / 41°F
Humidity 82%
Altimeter 29.47" Hg
Pressure 998 hPa
Elevation 74
METAR EGYP 180250Z 29021KT 9999 -RA OVC035 08/05 Q0998 BLU
Observed Flight Rules
Dec-18 @ 02:50 UTC
(29 minutes ago)
VFR
Wind Visibility
290° at 21 knots 10,000+ meters
Clouds
  • Overcast at 3,500' AGL
Conditions
  • Light Rain
Temperature Dewpoint
8°C / 46°F 5°C / 41°F
Humidity Altimeter Pressure
82% 29.47" Hg 998 hPa